Time;durP1;ratioP1;P1;durP2;ratioP2;P2;SDS_P1;SDS_P2;PMS_P1;PMS_P2;Temp;Humidity;BMP_temperature;BMP_pressure;BME280_temperature;BME280_humidity;BME280_pressure;Samples;Min_cycle;Max_cycle;Signal;HPM_P1;HPM_P2
2021/11/08 12:11:33;;;;;;;12.45;5.82;;;;;;;;;;5005540;28;20064;-82
2021/11/08 12:14:01;;;;;;;10.05;3.78;;;;;;;;;;5031336;28;20772;-82
2021/11/08 12:16:29;;;;;;;11.70;4.65;;;;;;;;;;5031986;28;20494;-82
2021/11/08 12:18:59;;;;;;;15.88;4.38;;;;;;;;;;5000066;28;20113;-82
2021/11/08 12:21:27;;;;;;;11.60;3.97;;;;;;;;;;4982887;28;20075;-82
2021/11/08 12:23:55;;;;;;;8.88;3.40;;;;;;;;;;4986083;28;20086;-82
2021/11/08 12:26:24;;;;;;;10.20;4.05;;;;;;;;;;5011378;28;20145;-82
2021/11/08 12:28:53;;;;;;;7.15;3.92;;;;;;;;;;5011214;28;20113;-82
2021/11/08 12:31:22;;;;;;;9.10;3.53;;;;;;;;;;5011389;28;20684;-82
2021/11/08 12:34:04;;;;;;;10.55;3.53;;;;;;;;;;5029839;28;20050;-82
2021/11/08 12:36:31;;;;;;;9.13;3.75;;;;;;;;;;4978861;28;20051;-82
2021/11/08 12:39:01;;;;;;;11.25;3.25;;;;;;;;;;5012292;28;20108;-82
2021/11/08 12:41:36;;;;;;;9.80;2.80;;;;;;;;;;5002840;28;20050;-82
2021/11/08 12:44:10;;;;;;;12.13;3.35;;;;;;;;;;5000347;28;20049;-82
2021/11/08 12:46:41;;;;;;;7.78;2.58;;;;;;;;;;5016722;28;20060;-82
2021/11/08 12:49:12;;;;;;;9.68;2.70;;;;;;;;;;5018172;28;20049;-82
2021/11/08 12:51:39;;;;;;;9.98;2.63;;;;;;;;;;5018827;28;20422;-83
2021/11/08 12:54:08;;;;;;;5.95;2.67;;;;;;;;;;4991822;28;20046;-82
2021/11/08 12:56:41;;;;;;;6.88;2.40;;;;;;;;;;5023370;28;20793;-82
2021/11/08 12:59:18;;;;;;;9.88;2.22;;;;;;;;;;5034651;28;20106;-83
2021/11/08 13:01:48;;;;;;;8.65;1.95;;;;;;;;;;5029989;28;20126;-82
2021/11/08 13:04:17;;;;;;;7.75;2.10;;;;;;;;;;5033273;28;20111;-83
2021/11/08 13:06:45;;;;;;;5.38;1.95;;;;;;;;;;5010757;28;20694;-83
2021/11/08 13:09:14;;;;;;;5.00;1.88;;;;;;;;;;5037694;28;20518;-82
2021/11/08 13:11:44;;;;;;;8.20;2.17;;;;;;;;;;5053385;28;20059;-82
2021/11/08 13:14:24;;;;;;;9.45;3.05;;;;;;;;;;5061739;28;20083;-82
2021/11/08 13:16:51;;;;;;;7.47;2.15;;;;;;;;;;5050503;28;20553;-82
2021/11/08 13:19:19;;;;;;;12.25;2.90;;;;;;;;;;5033339;28;20552;-82
2021/11/08 13:21:46;;;;;;;7.20;1.73;;;;;;;;;;5043789;28;20108;-82
2021/11/08 13:24:13;;;;;;;6.45;1.50;;;;;;;;;;5040156;28;20080;-82
2021/11/08 13:26:43;;;;;;;8.02;1.65;;;;;;;;;;5042280;28;20083;-82
2021/11/08 13:29:15;;;;;;;6.40;2.58;;;;;;;;;;5044190;28;20040;-82
2021/11/08 13:31:43;;;;;;;6.30;2.00;;;;;;;;;;5050655;28;20080;-82
2021/11/08 13:34:10;;;;;;;8.65;2.42;;;;;;;;;;5054220;28;20075;-83
2021/11/08 13:36:36;;;;;;;6.53;2.03;;;;;;;;;;5052090;28;20084;-82
2021/11/08 13:39:03;;;;;;;6.25;2.00;;;;;;;;;;5047420;28;20162;-83
2021/11/08 13:41:33;;;;;;;6.72;1.58;;;;;;;;;;5050459;28;20232;-83
2021/11/08 13:44:02;;;;;;;6.90;2.40;;;;;;;;;;5045454;28;20850;-82
2021/11/08 13:46:34;;;;;;;6.45;1.95;;;;;;;;;;5046995;28;20498;-82
2021/11/08 13:49:04;;;;;;;9.57;2.55;;;;;;;;;;5053369;28;20064;-83
2021/11/08 13:51:33;;;;;;;7.10;2.65;;;;;;;;;;5067432;28;20102;-83
2021/11/08 13:54:03;;;;;;;5.82;1.90;;;;;;;;;;5048543;28;20113;-83
2021/11/08 13:56:32;;;;;;;8.95;2.08;;;;;;;;;;5023371;28;20165;-83
2021/11/08 13:59:01;;;;;;;9.15;2.67;;;;;;;;;;5032596;28;20049;-83
2021/11/08 14:01:31;;;;;;;6.57;2.13;;;;;;;;;;5041369;28;20497;-83
2021/11/08 14:03:58;;;;;;;5.80;1.90;;;;;;;;;;5033445;28;20050;-83
2021/11/08 14:06:32;;;;;;;8.52;2.88;;;;;;;;;;5002201;28;20049;-82
2021/11/08 14:08:59;;;;;;;8.18;2.58;;;;;;;;;;5062668;28;20133;-82
2021/11/08 14:11:29;;;;;;;9.63;2.28;;;;;;;;;;5067124;28;20219;-82
2021/11/08 14:14:01;;;;;;;7.35;1.83;;;;;;;;;;5081587;27;20101;-82
2021/11/08 14:16:28;;;;;;;4.90;2.40;;;;;;;;;;5054138;28;20086;-82
2021/11/08 14:18:55;;;;;;;6.57;2.35;;;;;;;;;;5054606;28;20092;-82
2021/11/08 14:21:23;;;;;;;9.57;2.50;;;;;;;;;;5055228;28;20049;-82
2021/11/08 14:23:57;;;;;;;7.85;2.55;;;;;;;;;;5065024;28;20576;-83
2021/11/08 14:26:24;;;;;;;12.35;2.88;;;;;;;;;;5045199;28;20103;-82
2021/11/08 14:28:50;;;;;;;8.65;2.90;;;;;;;;;;5015488;28;20081;-83
2021/11/08 14:31:23;;;;;;;16.48;3.13;;;;;;;;;;5049729;28;20080;-82
2021/11/08 14:33:51;;;;;;;8.68;3.08;;;;;;;;;;5060749;28;20052;-83
2021/11/08 14:36:20;;;;;;;10.70;3.45;;;;;;;;;;5059969;28;20539;-83
2021/11/08 14:38:58;;;;;;;10.15;2.78;;;;;;;;;;5076179;28;20052;-83
2021/11/08 14:41:32;;;;;;;22.17;14.88;;;;;;;;;;5075768;28;20409;-83
2021/11/08 14:44:01;;;;;;;82.85;74.50;;;;;;;;;;5054425;28;20049;-82
2021/11/08 14:46:36;;;;;;;39.15;35.22;;;;;;;;;;5053308;27;20079;-83
2021/11/08 14:49:09;;;;;;;31.75;27.13;;;;;;;;;;5018934;28;20087;-82
2021/11/08 14:51:35;;;;;;;14.75;9.55;;;;;;;;;;5029588;28;20085;-82
2021/11/08 14:54:06;;;;;;;13.43;6.07;;;;;;;;;;5031900;28;20080;-83
2021/11/08 14:56:36;;;;;;;11.93;5.75;;;;;;;;;;5054052;28;20079;-82
2021/11/08 14:59:05;;;;;;;13.30;5.25;;;;;;;;;;5031418;28;20061;-82
2021/11/08 15:01:31;;;;;;;14.80;4.72;;;;;;;;;;5036760;28;20046;-82
2021/11/08 15:04:03;;;;;;;12.38;3.63;;;;;;;;;;5005573;28;20095;-82
2021/11/08 15:06:30;;;;;;;8.68;3.15;;;;;;;;;;5013307;28;20053;-82
2021/11/08 15:09:08;;;;;;;7.93;3.20;;;;;;;;;;5023197;28;20072;-82
2021/11/08 15:11:36;;;;;;;11.10;4.20;;;;;;;;;;5029889;28;20050;-82
2021/11/08 15:14:07;;;;;;;10.27;3.10;;;;;;;;;;5017282;28;20068;-82
2021/11/08 15:16:45;;;;;;;11.18;3.13;;;;;;;;;;5017699;28;20487;-82
2021/11/08 15:19:11;;;;;;;14.75;3.33;;;;;;;;;;5007900;28;20075;-82
2021/11/08 15:21:38;;;;;;;11.77;3.88;;;;;;;;;;5025197;28;20087;-82
2021/11/08 15:24:14;;;;;;;13.13;4.93;;;;;;;;;;5040668;28;20077;-82
2021/11/08 15:26:46;;;;;;;21.42;6.45;;;;;;;;;;5022312;28;20104;-82
2021/11/08 15:29:13;;;;;;;13.93;5.68;;;;;;;;;;5010594;28;20049;-82
2021/11/08 15:31:41;;;;;;;14.55;5.10;;;;;;;;;;4981727;28;20064;-82
2021/11/08 15:34:11;;;;;;;15.82;6.65;;;;;;;;;;4962985;28;20051;-82
2021/11/08 15:36:41;;;;;;;11.27;5.13;;;;;;;;;;4957846;28;20046;-82
2021/11/08 15:39:11;;;;;;;13.95;5.38;;;;;;;;;;5001568;28;20762;-82
2021/11/08 15:41:39;;;;;;;10.88;5.22;;;;;;;;;;4998563;28;20085;-82
2021/11/08 15:44:06;;;;;;;12.20;4.68;;;;;;;;;;5039772;28;20581;-82
2021/11/08 15:46:33;;;;;;;9.50;4.78;;;;;;;;;;5010234;28;20055;-82
2021/11/08 15:48:59;;;;;;;7.75;4.35;;;;;;;;;;5041211;28;20074;-82
2021/11/08 15:51:29;;;;;;;12.73;4.32;;;;;;;;;;5031631;28;20060;-82
2021/11/08 15:53:58;;;;;;;9.32;3.92;;;;;;;;;;5044202;28;20061;-82
2021/11/08 15:56:26;;;;;;;11.45;3.63;;;;;;;;;;5034060;28;20052;-82
2021/11/08 15:58:52;;;;;;;9.52;3.40;;;;;;;;;;5039216;28;20082;-82
2021/11/08 16:01:19;;;;;;;13.10;4.05;;;;;;;;;;5028147;28;20085;-82
2021/11/08 16:03:46;;;;;;;9.85;3.58;;;;;;;;;;5022675;28;20085;-82
2021/11/08 16:06:13;;;;;;;14.65;4.78;;;;;;;;;;5002759;28;20112;-82
2021/11/08 16:08:39;;;;;;;10.75;3.67;;;;;;;;;;5022107;28;20049;-82
2021/11/08 16:11:06;;;;;;;9.82;4.07;;;;;;;;;;5060272;28;20045;-82
2021/11/08 16:13:36;;;;;;;10.55;3.72;;;;;;;;;;5035154;28;20694;-82
2021/11/08 16:16:02;;;;;;;11.27;3.95;;;;;;;;;;5041675;28;20050;-82
2021/11/08 16:18:29;;;;;;;10.27;3.45;;;;;;;;;;5063888;28;20056;-82
2021/11/08 16:20:56;;;;;;;9.27;3.78;;;;;;;;;;5049487;28;20058;-82
2021/11/08 16:23:24;;;;;;;8.93;4.18;;;;;;;;;;5026781;28;20081;-82
2021/11/08 16:25:52;;;;;;;8.13;3.78;;;;;;;;;;5039144;28;20079;-82
2021/11/08 16:28:19;;;;;;;10.45;4.15;;;;;;;;;;5045083;27;20069;-82
2021/11/08 16:30:48;;;;;;;20.73;8.15;;;;;;;;;;5043065;28;20048;-82
2021/11/08 16:33:18;;;;;;;15.13;6.30;;;;;;;;;;5023891;28;20664;-82
2021/11/08 16:35:46;;;;;;;14.80;6.28;;;;;;;;;;5026969;28;20136;-82
2021/11/08 16:38:15;;;;;;;20.17;7.10;;;;;;;;;;5058857;28;20097;-82
2021/11/08 16:40:43;;;;;;;18.55;6.40;;;;;;;;;;5049676;28;20075;-82
2021/11/08 16:43:13;;;;;;;15.70;6.00;;;;;;;;;;5057447;28;20098;-83
2021/11/08 16:45:42;;;;;;;17.63;6.97;;;;;;;;;;5048882;28;20045;-82
2021/11/08 16:48:10;;;;;;;11.90;5.93;;;;;;;;;;5052983;28;20525;-82
2021/11/08 16:50:37;;;;;;;9.65;4.93;;;;;;;;;;5034028;28;20065;-82
2021/11/08 16:53:04;;;;;;;9.82;5.97;;;;;;;;;;5021862;28;20057;-82
2021/11/08 16:55:31;;;;;;;8.75;4.90;;;;;;;;;;5067418;28;20083;-82
2021/11/08 16:57:58;;;;;;;10.57;4.57;;;;;;;;;;5048208;28;20080;-82
2021/11/08 17:00:26;;;;;;;9.45;4.63;;;;;;;;;;5034356;28;20057;-82
2021/11/08 17:02:54;;;;;;;10.45;3.92;;;;;;;;;;5083508;28;20045;-82
2021/11/08 17:05:28;;;;;;;8.73;3.20;;;;;;;;;;5065725;28;20041;-81
2021/11/08 17:07:58;;;;;;;6.35;3.60;;;;;;;;;;5050036;28;20080;-82
2021/11/08 17:13:23;;;;;;;9.95;3.80;;;;;;;;;;5042354;28;20132;-82
2021/11/08 17:15:50;;;;;;;6.00;3.05;;;;;;;;;;5049047;28;20064;-81
2021/11/08 17:18:17;;;;;;;7.40;3.08;;;;;;;;;;5064242;28;20114;-81
2021/11/08 17:20:48;;;;;;;5.68;3.00;;;;;;;;;;5044171;28;20098;-82
2021/11/08 17:23:15;;;;;;;7.70;3.50;;;;;;;;;;5043080;28;20044;-82
2021/11/08 17:25:42;;;;;;;7.93;2.90;;;;;;;;;;5050606;28;20059;-81
2021/11/08 17:28:10;;;;;;;6.78;3.55;;;;;;;;;;5021774;28;20160;-81
2021/11/08 17:30:38;;;;;;;7.68;3.65;;;;;;;;;;5048836;27;20050;-81
2021/11/08 17:33:05;;;;;;;7.25;3.50;;;;;;;;;;5029523;28;20424;-82
2021/11/08 17:35:33;;;;;;;7.97;3.10;;;;;;;;;;5053667;28;20131;-81
2021/11/08 17:38:01;;;;;;;11.88;3.97;;;;;;;;;;5044665;28;20079;-81
2021/11/08 17:40:29;;;;;;;9.40;3.67;;;;;;;;;;5080692;28;20083;-81
2021/11/08 17:42:56;;;;;;;9.68;3.55;;;;;;;;;;5080114;27;20072;-81
2021/11/08 17:45:25;;;;;;;12.20;3.83;;;;;;;;;;5064509;28;20079;-81
2021/11/08 17:47:53;;;;;;;13.15;3.90;;;;;;;;;;5060755;28;20113;-81
2021/11/08 17:50:21;;;;;;;11.30;3.92;;;;;;;;;;5045041;28;20073;-81
2021/11/08 17:52:50;;;;;;;8.23;3.58;;;;;;;;;;5015186;28;20081;-81
2021/11/08 17:55:22;;;;;;;8.82;5.00;;;;;;;;;;5073026;28;20044;-81
2021/11/08 17:57:52;;;;;;;8.80;4.47;;;;;;;;;;5049327;28;20060;-82
2021/11/08 18:00:20;;;;;;;9.35;4.13;;;;;;;;;;5040599;28;20054;-81
2021/11/08 18:02:48;;;;;;;7.85;3.67;;;;;;;;;;5047511;28;21759;-81
2021/11/08 18:05:17;;;;;;;14.55;3.83;;;;;;;;;;5061838;28;20120;-81
2021/11/08 18:07:44;;;;;;;9.98;3.40;;;;;;;;;;5066804;28;20051;-82
2021/11/08 18:10:13;;;;;;;13.23;4.50;;;;;;;;;;5058462;28;20151;-82
2021/11/08 18:12:44;;;;;;;10.82;3.67;;;;;;;;;;5053779;28;20075;-81
2021/11/08 18:15:11;;;;;;;9.30;4.15;;;;;;;;;;5050012;28;20045;-82
2021/11/08 18:17:40;;;;;;;12.18;3.92;;;;;;;;;;5054533;28;20050;-85
2021/11/08 18:20:12;;;;;;;11.65;4.15;;;;;;;;;;5018047;27;21082;-84
2021/11/08 18:22:55;;;;;;;8.63;3.90;;;;;;;;;;4994901;28;20782;-83
2021/11/08 18:28:07;;;;;;;9.00;3.95;;;;;;;;;;5055233;28;20053;-82
2021/11/08 18:30:36;;;;;;;11.02;3.17;;;;;;;;;;5008990;28;20070;-84
2021/11/08 18:33:07;;;;;;;9.38;3.45;;;;;;;;;;5019868;28;20497;-83
2021/11/08 18:35:37;;;;;;;9.65;3.90;;;;;;;;;;5046245;28;20350;-83
2021/11/08 18:38:07;;;;;;;12.63;5.85;;;;;;;;;;5018703;28;20061;-85
2021/11/08 18:40:35;;;;;;;11.85;6.10;;;;;;;;;;5062757;28;20532;-83
2021/11/08 18:43:02;;;;;;;11.05;5.20;;;;;;;;;;5030084;28;20045;-83
2021/11/08 18:45:34;;;;;;;9.82;4.22;;;;;;;;;;5059234;28;20052;-83
2021/11/08 18:48:01;;;;;;;9.65;3.88;;;;;;;;;;5048303;28;20109;-83
2021/11/08 18:50:28;;;;;;;9.60;5.18;;;;;;;;;;5027716;28;20176;-83
2021/11/08 18:52:56;;;;;;;8.18;3.55;;;;;;;;;;5007731;28;20105;-83
2021/11/08 18:55:23;;;;;;;7.72;4.25;;;;;;;;;;5028449;28;20089;-83
2021/11/08 18:57:51;;;;;;;8.38;3.65;;;;;;;;;;5034646;28;20481;-84
2021/11/08 19:00:18;;;;;;;7.97;3.38;;;;;;;;;;5049115;28;20766;-84
2021/11/08 19:02:50;;;;;;;5.65;2.67;;;;;;;;;;5042819;28;20066;-83
2021/11/08 19:05:22;;;;;;;8.20;2.80;;;;;;;;;;5031306;28;20620;-84
2021/11/08 19:07:52;;;;;;;7.35;2.47;;;;;;;;;;5011410;28;20053;-83
2021/11/08 19:10:25;;;;;;;8.75;3.40;;;;;;;;;;5022423;28;20041;-84
2021/11/08 19:12:53;;;;;;;12.10;5.43;;;;;;;;;;5059907;28;20049;-84
2021/11/08 19:15:22;;;;;;;10.80;4.68;;;;;;;;;;5024838;28;20137;-83
2021/11/08 19:17:52;;;;;;;8.95;3.60;;;;;;;;;;5044832;28;20068;-83
2021/11/08 19:20:20;;;;;;;12.02;4.50;;;;;;;;;;5029656;28;20441;-84
2021/11/08 19:22:48;;;;;;;10.55;3.35;;;;;;;;;;5041380;28;20039;-83
2021/11/08 19:25:16;;;;;;;6.70;2.92;;;;;;;;;;5057895;28;20051;-82
2021/11/08 19:27:44;;;;;;;5.68;2.47;;;;;;;;;;5056180;28;20220;-83
2021/11/08 19:30:14;;;;;;;8.77;2.80;;;;;;;;;;5060805;28;20061;-83
2021/11/08 19:32:51;;;;;;;10.48;3.10;;;;;;;;;;5071707;28;20053;-82
2021/11/08 19:38:24;;;;;;;8.23;3.00;;;;;;;;;;5050231;28;20059;-87
2021/11/08 19:40:54;;;;;;;10.63;3.33;;;;;;;;;;5053733;28;20048;-87
2021/11/08 19:43:25;;;;;;;8.77;3.72;;;;;;;;;;5050801;28;20040;-88
2021/11/08 19:45:53;;;;;;;8.27;2.97;;;;;;;;;;5034696;28;20044;-85
2021/11/08 19:48:23;;;;;;;5.03;2.20;;;;;;;;;;5070624;27;20212;-88
2021/11/08 19:50:53;;;;;;;9.05;2.95;;;;;;;;;;5070414;28;20048;-87
2021/11/08 19:53:22;;;;;;;6.43;2.67;;;;;;;;;;5079725;27;20063;-86
2021/11/08 19:55:51;;;;;;;4.85;2.30;;;;;;;;;;5074630;28;20045;-85
2021/11/08 19:58:19;;;;;;;7.25;3.10;;;;;;;;;;5054949;28;20052;-87
2021/11/08 20:00:50;;;;;;;9.52;2.80;;;;;;;;;;5024700;28;20047;-86
2021/11/08 20:03:19;;;;;;;6.60;2.95;;;;;;;;;;5038379;28;20048;-85
2021/11/08 20:05:47;;;;;;;7.80;3.30;;;;;;;;;;5051542;28;20053;-85
2021/11/08 20:08:15;;;;;;;8.38;3.53;;;;;;;;;;5067896;27;20398;-86
2021/11/08 20:10:43;;;;;;;9.48;3.45;;;;;;;;;;5040228;28;20132;-86
2021/11/08 20:13:24;;;;;;;5.05;2.75;;;;;;;;;;5063841;28;20458;-87
2021/11/08 20:15:54;;;;;;;13.98;4.82;;;;;;;;;;5059734;27;20045;-87
2021/11/08 20:18:22;;;;;;;9.65;3.65;;;;;;;;;;5030399;28;20048;-87
2021/11/08 20:20:51;;;;;;;8.25;3.17;;;;;;;;;;5033789;28;20048;-87
2021/11/08 20:23:21;;;;;;;18.88;5.47;;;;;;;;;;5040947;28;20233;-87
2021/11/08 20:25:48;;;;;;;19.42;6.65;;;;;;;;;;5034646;28;20553;-86
2021/11/08 20:28:22;;;;;;;17.83;6.05;;;;;;;;;;5030757;28;20690;-87
2021/11/08 20:30:52;;;;;;;13.60;5.30;;;;;;;;;;5030313;28;20053;-87
2021/11/08 20:33:37;;;;;;;11.25;3.63;;;;;;;;;;5018513;28;20049;-89
2021/11/08 20:36:34;;;;;;;10.18;4.43;;;;;;;;;;4987206;28;20055;-88
2021/11/08 20:39:18;;;;;;;8.68;3.78;;;;;;;;;;4977358;28;20053;-88
2021/11/08 20:48:05;;;;;;;7.28;3.03;;;;;;;;;;4988906;28;20062;-88
2021/11/08 20:53:35;;;;;;;7.90;3.78;;;;;;;;;;4987830;28;20951;-87
2021/11/08 20:56:40;;;;;;;5.70;2.80;;;;;;;;;;4981343;28;20061;-86
2021/11/08 20:59:16;;;;;;;7.18;2.83;;;;;;;;;;4974367;28;20139;-87
2021/11/08 21:01:48;;;;;;;6.55;2.70;;;;;;;;;;4997966;28;20138;-87
2021/11/08 21:13:32;;;;;;;7.70;2.55;;;;;;;;;;5094197;28;20052;-72
2021/11/08 21:15:58;;;;;;;5.90;3.25;;;;;;;;;;5094793;28;20164;-73
2021/11/08 21:18:26;;;;;;;10.57;4.13;;;;;;;;;;5094996;28;20059;-73
2021/11/08 21:20:54;;;;;;;6.57;3.15;;;;;;;;;;5092435;28;20048;-73
2021/11/08 21:23:22;;;;;;;8.63;2.90;;;;;;;;;;5091766;28;20054;-73
2021/11/08 21:25:54;;;;;;;7.20;2.67;;;;;;;;;;5090276;28;20055;-72
2021/11/08 21:28:27;;;;;;;5.57;2.25;;;;;;;;;;5089864;28;20745;-73
2021/11/08 21:39:08;;;;;;;7.40;2.63;;;;;;;;;;5094490;28;20147;-73
2021/11/08 21:41:36;;;;;;;6.28;2.42;;;;;;;;;;5094733;28;20191;-73
2021/11/08 21:44:02;;;;;;;8.00;2.50;;;;;;;;;;5095593;28;20087;-73
2021/11/08 21:46:30;;;;;;;10.32;3.33;;;;;;;;;;5092171;28;20055;-73
2021/11/08 21:48:57;;;;;;;9.95;3.10;;;;;;;;;;5096016;28;20048;-73
2021/11/08 21:51:24;;;;;;;7.43;2.30;;;;;;;;;;5095252;28;20311;-73
2021/11/08 21:53:51;;;;;;;6.72;2.50;;;;;;;;;;5097399;28;20073;-73
2021/11/08 21:56:18;;;;;;;11.20;3.70;;;;;;;;;;5097516;28;20083;-74
2021/11/08 21:58:47;;;;;;;7.95;2.83;;;;;;;;;;5095575;28;20046;-73
2021/11/08 22:01:13;;;;;;;7.45;3.13;;;;;;;;;;5095402;28;20055;-73
2021/11/08 22:03:41;;;;;;;7.95;2.25;;;;;;;;;;5098139;28;20056;-73
2021/11/08 22:06:08;;;;;;;8.35;2.67;;;;;;;;;;5096467;28;20048;-74
2021/11/08 22:08:35;;;;;;;8.05;2.55;;;;;;;;;;5096487;28;20497;-74
2021/11/08 22:11:03;;;;;;;7.00;3.10;;;;;;;;;;5093671;28;20051;-73
2021/11/08 22:13:30;;;;;;;11.32;5.32;;;;;;;;;;5093427;28;20040;-73
2021/11/08 22:15:59;;;;;;;6.35;2.95;;;;;;;;;;5093722;28;20509;-73
2021/11/08 22:18:25;;;;;;;9.63;2.88;;;;;;;;;;5095215;28;20051;-74
2021/11/08 22:20:53;;;;;;;8.43;2.97;;;;;;;;;;5084449;28;20467;-73
2021/11/08 22:23:21;;;;;;;6.10;2.72;;;;;;;;;;5082200;28;20071;-73
2021/11/08 22:25:48;;;;;;;10.63;3.08;;;;;;;;;;5081485;28;20047;-73
2021/11/08 22:28:17;;;;;;;12.15;3.75;;;;;;;;;;5083163;28;20533;-74
2021/11/08 22:30:44;;;;;;;8.93;3.05;;;;;;;;;;5079197;28;20051;-73
2021/11/08 22:33:12;;;;;;;5.20;2.60;;;;;;;;;;5080812;28;20425;-73
2021/11/08 22:35:44;;;;;;;5.68;2.72;;;;;;;;;;5080086;28;20367;-73
2021/11/08 22:38:11;;;;;;;7.68;2.42;;;;;;;;;;5078835;28;20046;-73
2021/11/08 22:40:38;;;;;;;7.88;3.08;;;;;;;;;;5079497;28;20093;-73
2021/11/08 22:43:04;;;;;;;9.85;2.80;;;;;;;;;;5081612;28;20071;-73
2021/11/08 22:45:31;;;;;;;5.93;2.40;;;;;;;;;;5081986;28;20048;-73
2021/11/08 22:47:58;;;;;;;6.75;2.80;;;;;;;;;;5081759;28;20043;-73
2021/11/08 22:50:26;;;;;;;8.70;2.50;;;;;;;;;;5081293;28;20063;-73
2021/11/08 22:52:52;;;;;;;9.93;2.33;;;;;;;;;;5080931;28;20080;-74
2021/11/08 22:55:19;;;;;;;6.45;2.45;;;;;;;;;;5081132;28;20052;-74
2021/11/08 22:57:46;;;;;;;4.53;2.60;;;;;;;;;;5081925;28;20068;-74
2021/11/08 23:00:20;;;;;;;5.88;2.78;;;;;;;;;;5079265;28;20248;-73
2021/11/08 23:02:46;;;;;;;4.70;2.53;;;;;;;;;;5080192;28;20090;-73
2021/11/08 23:05:13;;;;;;;5.78;2.75;;;;;;;;;;5080591;28;20448;-74
2021/11/08 23:07:41;;;;;;;10.60;2.90;;;;;;;;;;5081143;28;20471;-73
2021/11/08 23:10:08;;;;;;;6.85;2.20;;;;;;;;;;5080113;28;20148;-73
2021/11/08 23:12:35;;;;;;;8.32;3.03;;;;;;;;;;5082003;28;20040;-73
2021/11/08 23:15:02;;;;;;;7.25;2.58;;;;;;;;;;5079631;28;20135;-73
2021/11/08 23:17:29;;;;;;;9.57;2.58;;;;;;;;;;5080820;28;20075;-73
2021/11/08 23:19:55;;;;;;;4.57;1.73;;;;;;;;;;5079532;28;20071;-73
2021/11/08 23:22:22;;;;;;;6.55;2.55;;;;;;;;;;5080580;28;20505;-73
2021/11/08 23:24:51;;;;;;;9.73;2.63;;;;;;;;;;5080174;28;20067;-73
2021/11/08 23:27:18;;;;;;;8.30;2.30;;;;;;;;;;5080412;28;20060;-73
2021/11/08 23:29:46;;;;;;;6.80;2.45;;;;;;;;;;5078683;28;20044;-73
2021/11/08 23:32:12;;;;;;;6.13;3.15;;;;;;;;;;5079726;28;20116;-73
2021/11/08 23:34:39;;;;;;;5.82;2.38;;;;;;;;;;5079942;28;20079;-73
2021/11/08 23:37:05;;;;;;;4.47;1.85;;;;;;;;;;5078946;28;20509;-73
2021/11/08 23:39:32;;;;;;;5.18;2.35;;;;;;;;;;5079447;28;20309;-73
2021/11/08 23:42:01;;;;;;;6.20;2.53;;;;;;;;;;5080830;28;20105;-73
2021/11/08 23:44:28;;;;;;;6.78;2.92;;;;;;;;;;5079302;28;20047;-73
2021/11/08 23:46:55;;;;;;;10.07;3.35;;;;;;;;;;5079049;28;20059;-73
2021/11/08 23:49:22;;;;;;;5.10;2.83;;;;;;;;;;5079521;28;20044;-73
2021/11/08 23:51:48;;;;;;;4.85;2.58;;;;;;;;;;5080173;28;20371;-73
2021/11/08 23:54:15;;;;;;;15.98;2.72;;;;;;;;;;5079694;28;20494;-73
2021/11/08 23:56:41;;;;;;;7.70;2.42;;;;;;;;;;5077110;28;20056;-73
2021/11/08 23:59:10;;;;;;;4.97;2.17;;;;;;;;;;5080214;28;20088;-73
